sensor_id;sensor_type;location;lat;lon;timestamp;pressure;altitude;pressure_sealevel;temperature;humidity
66543;BME280;53395;37.360;-122.046;2022-10-31T00:02:15;101178.81;;;17.96;75.14
66543;BME280;53395;37.360;-122.046;2022-10-31T00:04:41;101182.78;;;17.64;75.93
66543;BME280;53395;37.360;-122.046;2022-10-31T00:07:07;101178.88;;;17.72;76.69
66543;BME280;53395;37.360;-122.046;2022-10-31T00:09:33;101180.81;;;17.69;78.59
66543;BME280;53395;37.360;-122.046;2022-10-31T00:12:00;101180.63;;;17.51;80.35
66543;BME280;53395;37.360;-122.046;2022-10-31T00:14:25;101185.34;;;17.65;80.70
66543;BME280;53395;37.360;-122.046;2022-10-31T00:16:52;101175.16;;;17.56;81.80
66543;BME280;53395;37.360;-122.046;2022-10-31T00:19:18;101188.00;;;17.43;82.68
66543;BME280;53395;37.360;-122.046;2022-10-31T00:21:44;101184.16;;;17.28;82.90
66543;BME280;53395;37.360;-122.046;2022-10-31T00:24:11;101177.22;;;17.26;84.12
66543;BME280;53395;37.360;-122.046;2022-10-31T00:26:37;101177.53;;;16.96;84.15
66543;BME280;53395;37.360;-122.046;2022-10-31T00:29:03;101177.75;;;16.90;84.59
66543;BME280;53395;37.360;-122.046;2022-10-31T00:31:29;101180.03;;;16.99;84.43
66543;BME280;53395;37.360;-122.046;2022-10-31T00:33:57;101193.06;;;16.80;84.15
66543;BME280;53395;37.360;-122.046;2022-10-31T00:36:24;101193.38;;;16.71;84.71
66543;BME280;53395;37.360;-122.046;2022-10-31T00:38:50;101186.47;;;16.43;86.55
66543;BME280;53395;37.360;-122.046;2022-10-31T00:41:17;101197.41;;;16.33;87.46
66543;BME280;53395;37.360;-122.046;2022-10-31T00:43:43;101192.13;;;16.33;87.64
66543;BME280;53395;37.360;-122.046;2022-10-31T00:46:11;101190.34;;;16.33;87.61
66543;BME280;53395;37.360;-122.046;2022-10-31T00:48:37;101185.13;;;16.06;90.30
66543;BME280;53395;37.360;-122.046;2022-10-31T00:51:04;101188.28;;;15.91;91.82
66543;BME280;53395;37.360;-122.046;2022-10-31T00:53:30;101190.78;;;15.68;93.88
66543;BME280;53395;37.360;-122.046;2022-10-31T00:55:56;101194.41;;;15.92;93.67
66543;BME280;53395;37.360;-122.046;2022-10-31T00:58:23;101194.41;;;15.63;96.26
66543;BME280;53395;37.360;-122.046;2022-10-31T01:00:49;101191.50;;;15.44;98.68
66543;BME280;53395;37.360;-122.046;2022-10-31T01:03:26;101199.09;;;15.27;100.00
66543;BME280;53395;37.360;-122.046;2022-10-31T01:06:13;101199.53;;;15.12;100.00
66543;BME280;53395;37.360;-122.046;2022-10-31T01:08:40;101200.31;;;14.86;100.00
66543;BME280;53395;37.360;-122.046;2022-10-31T01:11:17;101206.97;;;14.99;100.00
66543;BME280;53395;37.360;-122.046;2022-10-31T01:13:44;101200.63;;;15.05;100.00
66543;BME280;53395;37.360;-122.046;2022-10-31T01:16:13;101206.94;;;14.69;100.00
66543;BME280;53395;37.360;-122.046;2022-10-31T01:18:39;101209.38;;;14.44;100.00
66543;BME280;53395;37.360;-122.046;2022-10-31T01:21:14;101207.75;;;14.38;100.00
66543;BME280;53395;37.360;-122.046;2022-10-31T01:23:41;101211.69;;;14.22;100.00
66543;BME280;53395;37.360;-122.046;2022-10-31T01:26:10;101215.31;;;14.18;100.00
66543;BME280;53395;37.360;-122.046;2022-10-31T01:28:40;101211.91;;;14.13;100.00
66543;BME280;53395;37.360;-122.046;2022-10-31T01:31:09;101220.13;;;14.01;100.00
66543;BME280;53395;37.360;-122.046;2022-10-31T01:33:36;101223.72;;;13.96;100.00
66543;BME280;53395;37.360;-122.046;2022-10-31T01:36:30;101222.72;;;14.02;100.00
66543;BME280;53395;37.360;-122.046;2022-10-31T01:38:59;101225.75;;;14.21;100.00
66543;BME280;53395;37.360;-122.046;2022-10-31T01:41:27;101223.94;;;14.89;100.00
66543;BME280;53395;37.360;-122.046;2022-10-31T01:44:02;101230.44;;;14.08;100.00
66543;BME280;53395;37.360;-122.046;2022-10-31T01:46:38;101232.88;;;13.80;100.00
66543;BME280;53395;37.360;-122.046;2022-10-31T01:49:14;101237.06;;;13.89;100.00
66543;BME280;53395;37.360;-122.046;2022-10-31T01:51:50;101233.94;;;13.73;100.00
66543;BME280;53395;37.360;-122.046;2022-10-31T01:54:21;101229.91;;;13.94;100.00
66543;BME280;53395;37.360;-122.046;2022-10-31T01:56:51;101233.72;;;13.82;100.00
66543;BME280;53395;37.360;-122.046;2022-10-31T01:59:20;101230.19;;;13.83;100.00
66543;BME280;53395;37.360;-122.046;2022-10-31T02:01:49;101233.03;;;13.74;100.00
66543;BME280;53395;37.360;-122.046;2022-10-31T02:04:17;101228.97;;;13.61;100.00
66543;BME280;53395;37.360;-122.046;2022-10-31T02:06:54;101235.88;;;13.66;100.00
66543;BME280;53395;37.360;-122.046;2022-10-31T02:09:22;101239.97;;;13.77;100.00
66543;BME280;53395;37.360;-122.046;2022-10-31T02:11:55;101240.59;;;13.88;100.00
66543;BME280;53395;37.360;-122.046;2022-10-31T02:14:25;101242.28;;;13.53;100.00
66543;BME280;53395;37.360;-122.046;2022-10-31T02:16:53;101240.72;;;13.83;100.00
66543;BME280;53395;37.360;-122.046;2022-10-31T02:19:51;101242.50;;;13.81;100.00
66543;BME280;53395;37.360;-122.046;2022-10-31T02:25:21;101248.47;;;13.88;100.00
66543;BME280;53395;37.360;-122.046;2022-10-31T02:33:46;101242.34;;;13.87;100.00
66543;BME280;53395;37.360;-122.046;2022-10-31T02:39:13;101247.97;;;13.33;100.00
66543;BME280;53395;37.360;-122.046;2022-10-31T02:44:54;101270.03;;;13.23;100.00
66543;BME280;53395;37.360;-122.046;2022-10-31T02:47:26;101265.91;;;13.13;100.00
66543;BME280;53395;37.360;-122.046;2022-10-31T02:52:29;101248.50;;;13.07;100.00
66543;BME280;53395;37.360;-122.046;2022-10-31T02:54:57;101254.84;;;12.97;100.00
66543;BME280;53395;37.360;-122.046;2022-10-31T02:57:30;101259.19;;;12.98;100.00
66543;BME280;53395;37.360;-122.046;2022-10-31T03:00:05;101256.59;;;12.96;100.00
66543;BME280;53395;37.360;-122.046;2022-10-31T03:08:21;101256.81;;;11.84;100.00
66543;BME280;53395;37.360;-122.046;2022-10-31T03:11:15;101257.72;;;11.80;100.00
66543;BME280;53395;37.360;-122.046;2022-10-31T03:16:22;101271.06;;;11.65;100.00
66543;BME280;53395;37.360;-122.046;2022-10-31T03:19:10;101271.19;;;11.56;100.00
66543;BME280;53395;37.360;-122.046;2022-10-31T03:24:11;101261.78;;;11.44;100.00
66543;BME280;53395;37.360;-122.046;2022-10-31T03:26:41;101262.66;;;11.43;100.00
66543;BME280;53395;37.360;-122.046;2022-10-31T03:29:11;101263.41;;;11.51;100.00
66543;BME280;53395;37.360;-122.046;2022-10-31T03:31:53;101261.72;;;11.47;100.00
66543;BME280;53395;37.360;-122.046;2022-10-31T03:34:20;101254.50;;;11.63;100.00
66543;BME280;53395;37.360;-122.046;2022-10-31T03:36:53;101258.19;;;11.50;100.00
66543;BME280;53395;37.360;-122.046;2022-10-31T03:39:22;101268.53;;;11.59;100.00
66543;BME280;53395;37.360;-122.046;2022-10-31T03:41:56;101267.41;;;11.78;100.00
66543;BME280;53395;37.360;-122.046;2022-10-31T03:44:26;101271.25;;;11.53;100.00
66543;BME280;53395;37.360;-122.046;2022-10-31T03:46:53;101274.22;;;11.27;100.00
66543;BME280;53395;37.360;-122.046;2022-10-31T03:49:20;101278.44;;;11.35;100.00
66543;BME280;53395;37.360;-122.046;2022-10-31T03:51:55;101276.78;;;11.31;100.00
66543;BME280;53395;37.360;-122.046;2022-10-31T03:54:30;101284.81;;;11.17;100.00
66543;BME280;53395;37.360;-122.046;2022-10-31T03:59:46;101283.16;;;11.09;100.00
66543;BME280;53395;37.360;-122.046;2022-10-31T04:02:19;101277.34;;;10.85;100.00
66543;BME280;53395;37.360;-122.046;2022-10-31T04:04:48;101282.63;;;10.81;100.00
66543;BME280;53395;37.360;-122.046;2022-10-31T04:07:15;101287.03;;;10.75;100.00
66543;BME280;53395;37.360;-122.046;2022-10-31T04:09:45;101280.09;;;10.71;100.00
66543;BME280;53395;37.360;-122.046;2022-10-31T04:12:14;101274.03;;;10.68;100.00
66543;BME280;53395;37.360;-122.046;2022-10-31T04:14:43;101269.59;;;10.76;100.00
66543;BME280;53395;37.360;-122.046;2022-10-31T04:17:14;101281.03;;;10.64;100.00
66543;BME280;53395;37.360;-122.046;2022-10-31T04:19:41;101284.38;;;10.78;100.00
66543;BME280;53395;37.360;-122.046;2022-10-31T04:22:08;101280.22;;;10.57;100.00
66543;BME280;53395;37.360;-122.046;2022-10-31T04:24:35;101280.31;;;10.50;100.00
66543;BME280;53395;37.360;-122.046;2022-10-31T04:27:02;101277.66;;;10.53;100.00
66543;BME280;53395;37.360;-122.046;2022-10-31T04:29:28;101281.13;;;10.55;100.00
66543;BME280;53395;37.360;-122.046;2022-10-31T04:31:55;101281.00;;;10.67;100.00
66543;BME280;53395;37.360;-122.046;2022-10-31T04:34:21;101277.69;;;10.48;100.00
66543;BME280;53395;37.360;-122.046;2022-10-31T04:36:47;101278.50;;;10.55;100.00
66543;BME280;53395;37.360;-122.046;2022-10-31T04:39:13;101290.00;;;10.37;100.00
66543;BME280;53395;37.360;-122.046;2022-10-31T04:41:39;101283.91;;;10.36;100.00
66543;BME280;53395;37.360;-122.046;2022-10-31T04:44:06;101283.97;;;10.30;100.00
66543;BME280;53395;37.360;-122.046;2022-10-31T04:46:32;101279.66;;;10.20;100.00
66543;BME280;53395;37.360;-122.046;2022-10-31T04:48:58;101287.50;;;10.22;100.00
66543;BME280;53395;37.360;-122.046;2022-10-31T04:51:24;101284.84;;;10.26;100.00
66543;BME280;53395;37.360;-122.046;2022-10-31T04:53:50;101290.19;;;10.12;100.00
66543;BME280;53395;37.360;-122.046;2022-10-31T04:56:17;101289.31;;;10.12;100.00
66543;BME280;53395;37.360;-122.046;2022-10-31T04:58:43;101288.28;;;10.34;100.00
66543;BME280;53395;37.360;-122.046;2022-10-31T05:01:09;101291.78;;;10.32;100.00
66543;BME280;53395;37.360;-122.046;2022-10-31T05:03:35;101283.88;;;10.44;100.00
66543;BME280;53395;37.360;-122.046;2022-10-31T05:06:01;101280.53;;;10.22;100.00
66543;BME280;53395;37.360;-122.046;2022-10-31T05:08:28;101275.38;;;10.16;100.00
66543;BME280;53395;37.360;-122.046;2022-10-31T05:10:54;101277.09;;;10.17;100.00
66543;BME280;53395;37.360;-122.046;2022-10-31T05:13:20;101284.28;;;9.87;100.00
66543;BME280;53395;37.360;-122.046;2022-10-31T05:15:46;101289.50;;;9.90;100.00
66543;BME280;53395;37.360;-122.046;2022-10-31T05:18:12;101279.97;;;9.82;100.00
66543;BME280;53395;37.360;-122.046;2022-10-31T05:20:38;101288.63;;;9.87;100.00
66543;BME280;53395;37.360;-122.046;2022-10-31T05:23:05;101288.63;;;9.87;100.00
66543;BME280;53395;37.360;-122.046;2022-10-31T05:25:31;101289.59;;;9.72;100.00
66543;BME280;53395;37.360;-122.046;2022-10-31T05:27:57;101289.59;;;9.77;100.00
66543;BME280;53395;37.360;-122.046;2022-10-31T05:30:29;101293.00;;;9.88;100.00
66543;BME280;53395;37.360;-122.046;2022-10-31T05:32:56;101296.56;;;9.76;100.00
66543;BME280;53395;37.360;-122.046;2022-10-31T05:35:25;101306.94;;;9.84;100.00
66543;BME280;53395;37.360;-122.046;2022-10-31T05:37:52;101300.94;;;9.68;100.00
66543;BME280;53395;37.360;-122.046;2022-10-31T05:40:19;101305.25;;;9.73;100.00
66543;BME280;53395;37.360;-122.046;2022-10-31T05:42:46;101305.09;;;9.98;100.00
66543;BME280;53395;37.360;-122.046;2022-10-31T05:45:16;101302.56;;;9.83;100.00
66543;BME280;53395;37.360;-122.046;2022-10-31T05:47:52;101301.75;;;9.81;100.00
66543;BME280;53395;37.360;-122.046;2022-10-31T05:50:19;101300.91;;;9.71;100.00
66543;BME280;53395;37.360;-122.046;2022-10-31T05:52:46;101304.56;;;9.45;100.00
66543;BME280;53395;37.360;-122.046;2022-10-31T05:55:12;101298.47;;;9.40;100.00
66543;BME280;53395;37.360;-122.046;2022-10-31T05:57:38;101301.88;;;9.58;100.00
66543;BME280;53395;37.360;-122.046;2022-10-31T06:00:05;101305.41;;;9.50;100.00
66543;BME280;53395;37.360;-122.046;2022-10-31T06:02:32;101305.41;;;9.49;100.00
66543;BME280;53395;37.360;-122.046;2022-10-31T06:05:00;101295.84;;;9.45;100.00
66543;BME280;53395;37.360;-122.046;2022-10-31T06:07:27;101299.34;;;9.38;100.00
66543;BME280;53395;37.360;-122.046;2022-10-31T06:09:57;101295.91;;;9.34;100.00
66543;BME280;53395;37.360;-122.046;2022-10-31T06:12:23;101293.19;;;9.57;100.00
66543;BME280;53395;37.360;-122.046;2022-10-31T06:14:50;101298.56;;;9.19;100.00
66543;BME280;53395;37.360;-122.046;2022-10-31T06:17:16;101298.50;;;9.34;100.00
66543;BME280;53395;37.360;-122.046;2022-10-31T06:19:42;101301.13;;;9.31;100.00
66543;BME280;53395;37.360;-122.046;2022-10-31T06:22:08;101306.34;;;9.31;100.00
66543;BME280;53395;37.360;-122.046;2022-10-31T06:24:37;101297.66;;;9.27;100.00
66543;BME280;53395;37.360;-122.046;2022-10-31T06:27:04;101294.19;;;9.24;100.00
66543;BME280;53395;37.360;-122.046;2022-10-31T06:29:31;101291.63;;;9.10;100.00
66543;BME280;53395;37.360;-122.046;2022-10-31T06:31:57;101292.56;;;8.95;100.00
66543;BME280;53395;37.360;-122.046;2022-10-31T06:34:23;101282.97;;;9.00;100.00
66543;BME280;53395;37.360;-122.046;2022-10-31T06:36:49;101290.78;;;9.06;100.00
66543;BME280;53395;37.360;-122.046;2022-10-31T06:39:15;101286.47;;;8.93;100.00
66543;BME280;53395;37.360;-122.046;2022-10-31T06:41:42;101279.50;;;9.00;100.00
66543;BME280;53395;37.360;-122.046;2022-10-31T06:44:08;101280.38;;;8.96;100.00
66543;BME280;53395;37.360;-122.046;2022-10-31T06:46:34;101281.31;;;8.85;100.00
66543;BME280;53395;37.360;-122.046;2022-10-31T06:49:00;101276.97;;;8.81;100.00
66543;BME280;53395;37.360;-122.046;2022-10-31T06:51:26;101266.53;;;8.83;100.00
66543;BME280;53395;37.360;-122.046;2022-10-31T06:53:52;101272.63;;;8.82;100.00
66543;BME280;53395;37.360;-122.046;2022-10-31T06:56:19;101267.41;;;8.80;100.00
66543;BME280;53395;37.360;-122.046;2022-10-31T06:58:45;101269.16;;;8.80;100.00
66543;BME280;53395;37.360;-122.046;2022-10-31T07:01:11;101270.06;;;8.73;100.00
66543;BME280;53395;37.360;-122.046;2022-10-31T07:03:37;101267.47;;;8.68;100.00
66543;BME280;53395;37.360;-122.046;2022-10-31T07:06:03;101268.31;;;8.67;100.00
66543;BME280;53395;37.360;-122.046;2022-10-31T07:08:30;101264.84;;;8.65;100.00
66543;BME280;53395;37.360;-122.046;2022-10-31T07:10:57;101266.56;;;8.72;100.00
66543;BME280;53395;37.360;-122.046;2022-10-31T07:13:24;101272.66;;;8.70;100.00
66543;BME280;53395;37.360;-122.046;2022-10-31T07:15:53;101277.00;;;8.74;100.00
66543;BME280;53395;37.360;-122.046;2022-10-31T07:18:20;101261.38;;;8.66;100.00
66543;BME280;53395;37.360;-122.046;2022-10-31T07:20:47;101258.72;;;8.77;100.00
66543;BME280;53395;37.360;-122.046;2022-10-31T07:23:14;101251.78;;;8.76;100.00
66543;BME280;53395;37.360;-122.046;2022-10-31T07:25:40;101256.13;;;8.74;100.00
66543;BME280;53395;37.360;-122.046;2022-10-31T07:28:07;101257.81;;;8.96;100.00
66543;BME280;53395;37.360;-122.046;2022-10-31T07:30:34;101258.69;;;8.91;100.00
66543;BME280;53395;37.360;-122.046;2022-10-31T07:33:00;101261.31;;;8.81;100.00
66543;BME280;53395;37.360;-122.046;2022-10-31T07:35:28;101257.84;;;8.81;100.00
66543;BME280;53395;37.360;-122.046;2022-10-31T07:37:55;101253.53;;;8.75;100.00
66543;BME280;53395;37.360;-122.046;2022-10-31T07:40:21;101256.16;;;8.58;100.00
66543;BME280;53395;37.360;-122.046;2022-10-31T07:42:50;101262.25;;;8.63;100.00
66543;BME280;53395;37.360;-122.046;2022-10-31T07:45:20;101263.97;;;8.64;100.00
66543;BME280;53395;37.360;-122.046;2022-10-31T07:47:49;101267.44;;;8.65;100.00
66543;BME280;53395;37.360;-122.046;2022-10-31T07:50:18;101260.53;;;8.53;100.00
66543;BME280;53395;37.360;-122.046;2022-10-31T07:52:44;101255.34;;;8.52;100.00
66543;BME280;53395;37.360;-122.046;2022-10-31T07:55:11;101257.06;;;8.54;100.00
66543;BME280;53395;37.360;-122.046;2022-10-31T07:57:38;101249.25;;;8.50;100.00
66543;BME280;53395;37.360;-122.046;2022-10-31T08:00:08;101238.81;;;8.56;100.00
66543;BME280;53395;37.360;-122.046;2022-10-31T08:02:35;101239.69;;;8.36;100.00
66543;BME280;53395;37.360;-122.046;2022-10-31T08:05:01;101228.41;;;8.30;100.00
66543;BME280;53395;37.360;-122.046;2022-10-31T08:07:28;101235.34;;;8.34;100.00
66543;BME280;53395;37.360;-122.046;2022-10-31T08:09:55;101225.81;;;8.37;100.00
66543;BME280;53395;37.360;-122.046;2022-10-31T08:12:21;101232.75;;;8.15;100.00
66543;BME280;53395;37.360;-122.046;2022-10-31T08:14:48;101230.13;;;8.37;100.00
66543;BME280;53395;37.360;-122.046;2022-10-31T08:17:15;101230.13;;;8.37;100.00
66543;BME280;53395;37.360;-122.046;2022-10-31T08:19:41;101231.91;;;8.19;100.00
66543;BME280;53395;37.360;-122.046;2022-10-31T08:22:07;101236.25;;;8.23;100.00
66543;BME280;53395;37.360;-122.046;2022-10-31T08:24:34;101240.56;;;8.20;100.00
66543;BME280;53395;37.360;-122.046;2022-10-31T08:27:00;101243.16;;;8.29;100.00
66543;BME280;53395;37.360;-122.046;2022-10-31T08:29:26;101241.44;;;8.28;100.00
66543;BME280;53395;37.360;-122.046;2022-10-31T08:31:52;101234.50;;;8.22;100.00
66543;BME280;53395;37.360;-122.046;2022-10-31T08:34:18;101219.72;;;8.34;100.00
66543;BME280;53395;37.360;-122.046;2022-10-31T08:36:45;101213.63;;;8.36;100.00
66543;BME280;53395;37.360;-122.046;2022-10-31T08:39:11;101210.19;;;8.37;100.00
66543;BME280;53395;37.360;-122.046;2022-10-31T08:41:38;101207.59;;;8.16;100.00
66543;BME280;53395;37.360;-122.046;2022-10-31T08:44:04;101211.91;;;8.20;100.00
66543;BME280;53395;37.360;-122.046;2022-10-31T08:46:30;101219.72;;;8.24;100.00
66543;BME280;53395;37.360;-122.046;2022-10-31T08:48:57;101222.31;;;8.34;100.00
66543;BME280;53395;37.360;-122.046;2022-10-31T08:51:23;101221.44;;;8.32;100.00
66543;BME280;53395;37.360;-122.046;2022-10-31T08:53:49;101216.25;;;8.32;100.00
66543;BME280;53395;37.360;-122.046;2022-10-31T08:56:16;101217.97;;;8.30;100.00
66543;BME280;53395;37.360;-122.046;2022-10-31T08:58:42;101202.34;;;8.34;100.00
66543;BME280;53395;37.360;-122.046;2022-10-31T09:01:08;101206.72;;;8.24;100.00
66543;BME280;53395;37.360;-122.046;2022-10-31T09:03:34;101206.69;;;8.34;100.00
66543;BME280;53395;37.360;-122.046;2022-10-31T09:06:02;101215.38;;;8.37;100.00
66543;BME280;53395;37.360;-122.046;2022-10-31T09:08:30;101201.47;;;8.27;100.00
66543;BME280;53395;37.360;-122.046;2022-10-31T09:10:57;101191.06;;;8.23;100.00
66543;BME280;53395;37.360;-122.046;2022-10-31T09:13:23;101189.34;;;8.25;100.00
66543;BME280;53395;37.360;-122.046;2022-10-31T09:15:50;101194.56;;;8.13;100.00
66543;BME280;53395;37.360;-122.046;2022-10-31T09:18:18;101208.47;;;8.21;100.00
66543;BME280;53395;37.360;-122.046;2022-10-31T09:20:46;101205.84;;;8.24;100.00
66543;BME280;53395;37.360;-122.046;2022-10-31T09:23:18;101195.44;;;8.13;100.00
66543;BME280;53395;37.360;-122.046;2022-10-31T09:25:45;101183.31;;;8.12;100.00
66543;BME280;53395;37.360;-122.046;2022-10-31T09:28:13;101190.22;;;8.09;100.00
66543;BME280;53395;37.360;-122.046;2022-10-31T09:30:40;101187.63;;;8.13;100.00
66543;BME280;53395;37.360;-122.046;2022-10-31T09:33:11;101183.28;;;8.15;100.00
66543;BME280;53395;37.360;-122.046;2022-10-31T09:35:38;101180.69;;;8.20;100.00
66543;BME280;53395;37.360;-122.046;2022-10-31T09:38:08;101176.34;;;8.11;100.00
66543;BME280;53395;37.360;-122.046;2022-10-31T09:51:42;101158.97;;;8.18;100.00
66543;BME280;53395;37.360;-122.046;2022-10-31T09:54:16;101160.69;;;8.20;100.00
66543;BME280;53395;37.360;-122.046;2022-10-31T09:56:44;101165.06;;;8.17;100.00
66543;BME280;53395;37.360;-122.046;2022-10-31T09:59:37;101166.81;;;8.15;100.00
66543;BME280;53395;37.360;-122.046;2022-10-31T10:10:16;101154.66;;;8.18;100.00
66543;BME280;53395;37.360;-122.046;2022-10-31T10:27:26;101124.28;;;8.14;100.00
66543;BME280;53395;37.360;-122.046;2022-10-31T10:30:08;101120.81;;;8.18;100.00
66543;BME280;53395;37.360;-122.046;2022-10-31T10:32:51;101111.28;;;8.00;100.00
66543;BME280;53395;37.360;-122.046;2022-10-31T10:35:29;101118.25;;;8.00;100.00
66543;BME280;53395;37.360;-122.046;2022-10-31T10:40:32;101104.34;;;8.12;100.00
66543;BME280;53395;37.360;-122.046;2022-10-31T10:43:36;101099.97;;;8.15;100.00
66543;BME280;53395;37.360;-122.046;2022-10-31T10:49:18;101092.16;;;8.18;100.00
66543;BME280;53395;37.360;-122.046;2022-10-31T10:59:44;101084.31;;;8.23;100.00
66543;BME280;53395;37.360;-122.046;2022-10-31T11:02:17;101080.88;;;8.15;100.00
66543;BME280;53395;37.360;-122.046;2022-10-31T11:04:44;101080.78;;;8.35;100.00
66543;BME280;53395;37.360;-122.046;2022-10-31T11:07:11;101076.50;;;8.40;100.00
66543;BME280;53395;37.360;-122.046;2022-10-31T11:09:38;101086.88;;;8.38;100.00
66543;BME280;53395;37.360;-122.046;2022-10-31T11:12:26;101083.41;;;8.38;100.00
66543;BME280;53395;37.360;-122.046;2022-10-31T11:14:57;101086.00;;;8.35;100.00
66543;BME280;53395;37.360;-122.046;2022-10-31T11:17:39;101079.06;;;8.43;100.00
66543;BME280;53395;37.360;-122.046;2022-10-31T11:20:27;101081.66;;;8.41;100.00
66543;BME280;53395;37.360;-122.046;2022-10-31T11:23:19;101075.63;;;8.29;100.00
66543;BME280;53395;37.360;-122.046;2022-10-31T11:25:58;101074.72;;;8.37;100.00
66543;BME280;53395;37.360;-122.046;2022-10-31T11:28:27;101065.22;;;8.24;100.00
66543;BME280;53395;37.360;-122.046;2022-10-31T11:30:57;101065.25;;;8.21;100.00
66543;BME280;53395;37.360;-122.046;2022-10-31T11:33:26;101062.69;;;8.12;100.00
66543;BME280;53395;37.360;-122.046;2022-10-31T11:35:54;101067.00;;;8.14;100.00
66543;BME280;53395;37.360;-122.046;2022-10-31T11:38:24;101069.56;;;8.16;100.00
66543;BME280;53395;37.360;-122.046;2022-10-31T11:40:57;101076.53;;;8.15;100.00
66543;BME280;53395;37.360;-122.046;2022-10-31T11:43:24;101067.84;;;8.13;100.00
66543;BME280;53395;37.360;-122.046;2022-10-31T11:45:51;101074.81;;;8.13;100.00
66543;BME280;53395;37.360;-122.046;2022-10-31T11:48:23;101064.41;;;8.08;100.00
66543;BME280;53395;37.360;-122.046;2022-10-31T11:50:57;101071.34;;;8.11;100.00
66543;BME280;53395;37.360;-122.046;2022-10-31T11:53:29;101069.59;;;8.11;100.00
66543;BME280;53395;37.360;-122.046;2022-10-31T11:56:16;101077.41;;;8.14;100.00
66543;BME280;53395;37.360;-122.046;2022-10-31T11:58:42;101064.41;;;8.03;100.00
66543;BME280;53395;37.360;-122.046;2022-10-31T12:01:27;101075.72;;;8.01;100.00
66543;BME280;53395;37.360;-122.046;2022-10-31T12:04:07;101064.41;;;8.07;100.00
66543;BME280;53395;37.360;-122.046;2022-10-31T12:06:38;101067.91;;;8.02;100.00
66543;BME280;53395;37.360;-122.046;2022-10-31T12:09:24;101056.59;;;8.10;100.00
66543;BME280;53395;37.360;-122.046;2022-10-31T12:14:54;101048.84;;;7.97;100.00
66543;BME280;53395;37.360;-122.046;2022-10-31T12:17:45;101056.63;;;8.02;100.00
66543;BME280;53395;37.360;-122.046;2022-10-31T12:23:06;101061.75;;;8.22;100.00
66543;BME280;53395;37.360;-122.046;2022-10-31T12:26:22;101060.09;;;8.07;100.00
66543;BME280;53395;37.360;-122.046;2022-10-31T12:34:40;101067.91;;;7.95;100.00
66543;BME280;53395;37.360;-122.046;2022-10-31T12:50:44;101068.78;;;8.00;100.00
66543;BME280;53395;37.360;-122.046;2022-10-31T12:56:28;101061.00;;;7.89;100.00
66543;BME280;53395;37.360;-122.046;2022-10-31T13:01:59;101073.94;;;8.15;100.00
66543;BME280;53395;37.360;-122.046;2022-10-31T13:04:51;101067.91;;;7.95;100.00
66543;BME280;53395;37.360;-122.046;2022-10-31T13:09:57;101066.25;;;7.74;100.00
66543;BME280;53395;37.360;-122.046;2022-10-31T13:12:27;101064.50;;;7.63;100.00
66543;BME280;53395;37.360;-122.046;2022-10-31T13:14:59;101067.13;;;7.60;100.00
66543;BME280;53395;37.360;-122.046;2022-10-31T13:17:28;101063.66;;;7.65;100.00
66543;BME280;53395;37.360;-122.046;2022-10-31T13:20:27;101064.50;;;7.74;100.00
66543;BME280;53395;37.360;-122.046;2022-10-31T13:22:55;101053.22;;;7.81;100.00
66543;BME280;53395;37.360;-122.046;2022-10-31T13:25:23;101050.59;;;7.75;100.00
66543;BME280;53395;37.360;-122.046;2022-10-31T13:27:55;101057.56;;;7.81;100.00
66543;BME280;53395;37.360;-122.046;2022-10-31T13:30:25;101065.38;;;7.70;100.00
66543;BME280;53395;37.360;-122.046;2022-10-31T13:33:07;101065.38;;;7.58;100.00
66543;BME280;53395;37.360;-122.046;2022-10-31T13:38:56;101064.50;;;7.65;100.00
66543;BME280;53395;37.360;-122.046;2022-10-31T13:46:39;101061.03;;;7.74;100.00
66543;BME280;53395;37.360;-122.046;2022-10-31T13:49:26;101052.34;;;7.70;100.00
66543;BME280;53395;37.360;-122.046;2022-10-31T13:52:14;101041.94;;;7.78;100.00
66543;BME280;53395;37.360;-122.046;2022-10-31T13:54:46;101054.06;;;7.77;100.00
66543;BME280;53395;37.360;-122.046;2022-10-31T13:57:19;101050.59;;;7.86;100.00
66543;BME280;53395;37.360;-122.046;2022-10-31T13:59:51;101043.66;;;7.83;100.00
66543;BME280;53395;37.360;-122.046;2022-10-31T14:02:26;101039.34;;;7.75;100.00
66543;BME280;53395;37.360;-122.046;2022-10-31T14:05:02;101036.72;;;7.82;100.00
66543;BME280;53395;37.360;-122.046;2022-10-31T14:07:29;101030.66;;;7.83;100.00
66543;BME280;53395;37.360;-122.046;2022-10-31T14:10:03;101011.59;;;7.77;100.00
66543;BME280;53395;37.360;-122.046;2022-10-31T14:15:20;101027.19;;;7.86;100.00
66543;BME280;53395;37.360;-122.046;2022-10-31T14:18:02;101032.38;;;7.83;100.00
66543;BME280;53395;37.360;-122.046;2022-10-31T14:20:40;101030.59;;;8.00;100.00
66543;BME280;53395;37.360;-122.046;2022-10-31T14:29:22;101047.91;;;8.12;100.00
66543;BME280;53395;37.360;-122.046;2022-10-31T14:32:19;101039.94;;;8.55;100.00
66543;BME280;53395;37.360;-122.046;2022-10-31T14:34:43;101040.94;;;8.22;100.00
66543;BME280;53395;37.360;-122.046;2022-10-31T14:42:54;101022.78;;;8.05;100.00
66543;BME280;53395;37.360;-122.046;2022-10-31T14:45:38;101017.56;;;8.10;100.00
66543;BME280;53395;37.360;-122.046;2022-10-31T14:48:11;101025.31;;;8.20;100.00
66543;BME280;53395;37.360;-122.046;2022-10-31T14:50:59;101022.72;;;8.17;100.00